Time;durP1;ratioP1;P1;durP2;ratioP2;P2;SDS_P1;SDS_P2;PMS_P1;PMS_P2;Temp;Humidity;BMP_temperature;BMP_pressure;BME280_temperature;BME280_humidity;BME280_pressure;Samples;Min_cycle;Max_cycle;Signal;HPM_P1;HPM_P2
2023/05/12 00:00:46;;;;;;;45.80;29.67;;;14.30;99.90;;;;;;5075249;28;20613;-70
2023/05/12 00:03:11;;;;;;;42.90;29.23;;;14.30;99.90;;;;;;5075580;28;20620;-69
2023/05/12 00:05:37;;;;;;;45.10;30.53;;;14.30;99.90;;;;;;5075454;28;20191;-70
2023/05/12 00:08:03;;;;;;;42.77;30.67;;;14.30;99.90;;;;;;5075257;28;20183;-70
2023/05/12 00:10:28;;;;;;;43.30;30.17;;;14.30;99.90;;;;;;5075226;28;20173;-70
2023/05/12 00:12:57;;;;;;;42.63;29.50;;;14.30;99.90;;;;;;5075262;28;20192;-69
2023/05/12 00:15:22;;;;;;;46.83;30.33;;;14.40;99.90;;;;;;5075035;28;20251;-70
2023/05/12 00:17:48;;;;;;;43.97;29.73;;;14.40;99.90;;;;;;5075220;28;20303;-69
2023/05/12 00:20:14;;;;;;;46.60;31.07;;;14.40;99.90;;;;;;5075077;28;20224;-70
2023/05/12 00:22:40;;;;;;;45.03;31.07;;;14.40;99.90;;;;;;5075234;28;20169;-68
2023/05/12 00:25:06;;;;;;;49.67;33.13;;;14.40;99.90;;;;;;5074949;28;20169;-70
2023/05/12 00:27:32;;;;;;;44.47;31.60;;;14.30;99.90;;;;;;5074733;28;20180;-70
2023/05/12 00:29:58;;;;;;;51.70;32.10;;;14.30;99.90;;;;;;5074775;28;20180;-69
2023/05/12 00:32:24;;;;;;;49.77;31.90;;;14.20;99.90;;;;;;5075145;28;20177;-69
2023/05/12 00:34:51;;;;;;;51.70;32.80;;;14.30;99.90;;;;;;5074966;28;20181;-69
2023/05/12 00:37:17;;;;;;;48.33;33.40;;;14.20;99.90;;;;;;5074659;28;20303;-69
2023/05/12 00:39:43;;;;;;;47.40;33.70;;;14.30;99.90;;;;;;5074750;28;20604;-69
2023/05/12 00:42:10;;;;;;;47.10;32.73;;;14.10;99.90;;;;;;5074773;28;20173;-71
2023/05/12 00:44:36;;;;;;;49.97;33.03;;;14.20;99.90;;;;;;5074489;28;20200;-69
2023/05/12 00:47:03;;;;;;;50.67;33.83;;;14.20;99.90;;;;;;5074782;28;20169;-70
2023/05/12 00:49:30;;;;;;;50.70;35.03;;;14.20;99.90;;;;;;5074756;28;20168;-71
2023/05/12 00:51:57;;;;;;;48.70;34.00;;;14.00;99.90;;;;;;5074687;28;20687;-68
2023/05/12 00:54:25;;;;;;;53.07;34.73;;;14.10;99.90;;;;;;5074472;28;20238;-70
2023/05/12 00:56:50;;;;;;;52.50;35.93;;;14.10;99.90;;;;;;5074657;28;20208;-70
2023/05/12 00:59:16;;;;;;;55.97;36.30;;;14.10;99.90;;;;;;5074128;28;20206;-70
2023/05/12 01:01:42;;;;;;;56.00;36.33;;;14.20;99.90;;;;;;5074591;28;20180;-70
2023/05/12 01:04:08;;;;;;;55.67;36.27;;;14.30;99.90;;;;;;5056624;28;20507;-70
2023/05/12 01:06:38;;;;;;;58.73;37.37;;;14.30;99.90;;;;;;5074432;28;20279;-70
2023/05/12 01:09:04;;;;;;;56.63;37.13;;;14.30;99.90;;;;;;5074150;28;20177;-70
2023/05/12 01:11:30;;;;;;;53.97;36.70;;;14.30;99.90;;;;;;5074570;28;20180;-70
2023/05/12 01:13:56;;;;;;;56.70;36.80;;;14.30;99.90;;;;;;5073756;28;20184;-70
2023/05/12 01:16:25;;;;;;;68.80;38.17;;;14.20;99.90;;;;;;5074184;28;20781;-70
2023/05/12 01:18:53;;;;;;;56.67;37.03;;;14.20;99.90;;;;;;5074311;28;20247;-70
2023/05/12 01:21:19;;;;;;;57.90;37.70;;;14.20;99.90;;;;;;5073514;28;20213;-70
2023/05/12 01:23:50;;;;;;;54.23;37.07;;;14.30;99.90;;;;;;5074137;28;20620;-70
2023/05/12 01:26:16;;;;;;;54.30;36.57;;;14.20;99.90;;;;;;5073945;28;20247;-70
2023/05/12 01:28:42;;;;;;;52.80;36.33;;;14.10;99.90;;;;;;5073695;28;20200;-70
2023/05/12 01:31:08;;;;;;;57.63;37.27;;;14.10;99.90;;;;;;5074055;28;20559;-70
2023/05/12 01:33:35;;;;;;;50.50;35.07;;;14.20;99.90;;;;;;5073941;28;20177;-70
2023/05/12 01:36:01;;;;;;;54.17;35.23;;;14.10;99.90;;;;;;5073749;28;20244;-70
2023/05/12 01:38:27;;;;;;;50.43;35.17;;;14.00;99.90;;;;;;5073512;28;20242;-69
2023/05/12 01:40:52;;;;;;;51.03;34.07;;;14.00;99.90;;;;;;5073095;28;20169;-70
2023/05/12 01:43:18;;;;;;;49.97;34.03;;;14.00;99.90;;;;;;5073413;28;20165;-69
2023/05/12 01:45:43;;;;;;;52.77;34.73;;;14.00;99.90;;;;;;5073845;28;20177;-70
2023/05/12 01:48:09;;;;;;;50.37;34.47;;;14.00;99.90;;;;;;5073550;28;20623;-69
2023/05/12 01:50:35;;;;;;;52.57;34.83;;;14.10;99.90;;;;;;5073589;28;20602;-69
2023/05/12 01:53:00;;;;;;;49.23;32.97;;;14.00;99.90;;;;;;5073570;28;20168;-70
2023/05/12 01:55:26;;;;;;;48.80;31.57;;;14.00;99.90;;;;;;5073472;28;20168;-69
2023/05/12 01:57:51;;;;;;;48.33;31.93;;;14.00;99.90;;;;;;5073217;28;20234;-69
2023/05/12 02:00:17;;;;;;;49.10;33.60;;;14.00;99.90;;;;;;5073524;28;20634;-69
2023/05/12 02:02:43;;;;;;;48.90;33.00;;;14.00;99.90;;;;;;5073419;28;20628;-69
2023/05/12 02:05:09;;;;;;;50.13;33.13;;;14.10;99.90;;;;;;5073185;28;20160;-69
2023/05/12 02:07:34;;;;;;;49.20;33.83;;;14.00;99.90;;;;;;5073306;28;20164;-70
2023/05/12 02:10:00;;;;;;;52.40;32.73;;;14.00;99.90;;;;;;5073269;28;20171;-69
2023/05/12 02:12:26;;;;;;;50.87;34.07;;;14.00;99.90;;;;;;5072753;28;20188;-69
2023/05/12 02:14:51;;;;;;;50.80;33.83;;;14.00;99.90;;;;;;5073196;28;20583;-70
2023/05/12 02:17:17;;;;;;;49.20;34.00;;;14.00;99.90;;;;;;5073116;28;20250;-70
2023/05/12 02:19:42;;;;;;;49.97;33.70;;;14.10;99.90;;;;;;5072856;28;20216;-70
2023/05/12 02:22:08;;;;;;;50.03;34.50;;;14.10;99.90;;;;;;5073184;28;20252;-70
2023/05/12 02:24:35;;;;;;;50.53;32.93;;;14.10;99.90;;;;;;5072917;28;20224;-70
2023/05/12 02:27:01;;;;;;;50.00;33.53;;;14.10;99.90;;;;;;5072808;28;20207;-69
2023/05/12 02:29:26;;;;;;;52.50;33.73;;;14.10;99.90;;;;;;5055592;28;20204;-69
2023/05/12 02:31:52;;;;;;;50.77;34.93;;;14.20;99.90;;;;;;5073220;28;20556;-70
2023/05/12 02:34:17;;;;;;;50.17;33.43;;;14.20;99.90;;;;;;5072999;28;20643;-69
2023/05/12 02:36:43;;;;;;;48.30;33.57;;;14.10;99.90;;;;;;5072909;28;20200;-69
2023/05/12 02:39:09;;;;;;;48.20;33.17;;;14.10;99.90;;;;;;5073088;28;20176;-70
2023/05/12 02:41:34;;;;;;;51.40;34.53;;;14.20;99.90;;;;;;5072480;28;20180;-70
2023/05/12 02:44:00;;;;;;;51.30;35.07;;;14.20;99.90;;;;;;5072994;28;20695;-70
2023/05/12 02:46:25;;;;;;;51.00;36.27;;;14.20;99.90;;;;;;5072852;28;20184;-70
2023/05/12 02:48:51;;;;;;;50.23;34.87;;;14.30;99.90;;;;;;5072835;28;20173;-70
2023/05/12 02:51:16;;;;;;;54.67;36.10;;;14.30;99.90;;;;;;5074876;28;20200;-71
2023/05/12 02:53:42;;;;;;;69.33;45.57;;;14.30;99.90;;;;;;5076827;28;20630;-70
2023/05/12 02:56:08;;;;;;;70.07;48.43;;;14.30;99.90;;;;;;5076429;28;20200;-70
2023/05/12 02:58:34;;;;;;;64.83;45.37;;;14.30;99.90;;;;;;5076578;28;20632;-70
2023/05/12 03:00:59;;;;;;;63.83;42.43;;;14.30;99.90;;;;;;5076739;28;20174;-70
2023/05/12 03:03:25;;;;;;;57.10;39.03;;;14.20;99.90;;;;;;5076635;28;20181;-70
2023/05/12 03:05:51;;;;;;;58.13;39.77;;;14.10;99.90;;;;;;5076700;28;20221;-70
2023/05/12 03:08:17;;;;;;;54.70;35.97;;;14.10;99.90;;;;;;5076407;28;20663;-70
2023/05/12 03:10:42;;;;;;;51.10;35.57;;;14.00;99.90;;;;;;5076633;28;20204;-69
2023/05/12 03:13:08;;;;;;;48.80;32.80;;;14.00;99.90;;;;;;5076365;28;20663;-69
2023/05/12 03:15:35;;;;;;;48.60;33.07;;;14.00;99.90;;;;;;5076250;28;20638;-69
2023/05/12 03:18:01;;;;;;;44.03;31.27;;;13.90;99.90;;;;;;5076207;28;20181;-70
2023/05/12 03:20:27;;;;;;;32.53;24.07;;;13.70;99.90;;;;;;5075597;28;20224;-70
2023/05/12 03:22:52;;;;;;;24.80;19.07;;;13.50;99.90;;;;;;5076158;28;20586;-68
2023/05/12 03:25:18;;;;;;;20.57;15.47;;;13.30;99.90;;;;;;5076197;28;20172;-71
2023/05/12 03:27:44;;;;;;;15.03;12.10;;;13.20;99.90;;;;;;5075893;28;20187;-69
2023/05/12 03:30:10;;;;;;;17.20;13.40;;;13.10;99.90;;;;;;5076005;28;20660;-68
2023/05/12 03:32:38;;;;;;;16.43;12.57;;;13.00;99.90;;;;;;5075344;28;20211;-69
2023/05/12 03:35:04;;;;;;;16.23;12.57;;;13.00;99.90;;;;;;5075779;28;20168;-69
2023/05/12 03:37:30;;;;;;;14.87;12.37;;;13.00;99.90;;;;;;5075689;28;20239;-70
2023/05/12 03:39:56;;;;;;;13.60;11.70;;;13.00;99.90;;;;;;5075252;28;20208;-69
2023/05/12 03:42:22;;;;;;;14.60;12.40;;;12.90;99.90;;;;;;5075874;28;20689;-69
2023/05/12 03:44:50;;;;;;;14.13;11.70;;;13.00;99.90;;;;;;5075539;28;20181;-69
2023/05/12 03:47:15;;;;;;;15.37;12.17;;;13.00;99.90;;;;;;5075500;28;20180;-68
2023/05/12 03:49:41;;;;;;;18.73;12.63;;;13.00;99.90;;;;;;5075902;28;20165;-71
2023/05/12 03:52:06;;;;;;;17.77;13.30;;;13.00;99.90;;;;;;5075341;28;20245;-69
2023/05/12 03:54:32;;;;;;;19.27;13.03;;;13.00;99.90;;;;;;5075089;28;20562;-69
2023/05/12 03:56:58;;;;;;;18.20;13.63;;;13.10;99.90;;;;;;5075154;28;20236;-70
2023/05/12 03:59:23;;;;;;;19.17;13.70;;;13.00;99.90;;;;;;5075237;28;20179;-70
2023/05/12 04:01:49;;;;;;;16.97;13.70;;;13.00;99.90;;;;;;5074719;28;20699;-70
2023/05/12 04:04:15;;;;;;;16.17;12.70;;;13.00;99.90;;;;;;5074907;28;20172;-69
2023/05/12 04:06:41;;;;;;;15.07;12.63;;;13.10;99.90;;;;;;5075355;28;20185;-70
2023/05/12 04:09:07;;;;;;;16.63;13.57;;;13.10;99.90;;;;;;5074854;28;20270;-69
2023/05/12 04:11:32;;;;;;;15.73;13.23;;;13.10;99.90;;;;;;5074496;28;20192;-69
2023/05/12 04:13:58;;;;;;;18.03;13.87;;;13.10;99.90;;;;;;5075011;28;20287;-70
2023/05/12 04:16:24;;;;;;;18.83;13.50;;;13.20;99.90;;;;;;5074540;28;20208;-69
2023/05/12 04:18:49;;;;;;;17.20;13.47;;;13.10;99.90;;;;;;5075148;28;20176;-69
2023/05/12 04:21:15;;;;;;;19.83;14.23;;;13.20;99.90;;;;;;5074826;28;20367;-70
2023/05/12 04:23:40;;;;;;;18.50;13.93;;;13.10;99.90;;;;;;5074736;28;20165;-69
2023/05/12 04:26:06;;;;;;;20.43;15.00;;;13.10;99.90;;;;;;5074645;28;20221;-69
2023/05/12 04:28:32;;;;;;;19.63;15.63;;;13.10;99.90;;;;;;5074304;28;20255;-70
2023/05/12 04:31:04;;;;;;;23.63;17.17;;;13.10;99.90;;;;;;5074806;28;20177;-69
2023/05/12 04:33:30;;;;;;;22.37;18.03;;;13.20;99.90;;;;;;5074482;28;20160;-69
2023/05/12 04:35:56;;;;;;;24.63;19.90;;;13.30;99.90;;;;;;5073866;28;20269;-69
2023/05/12 04:38:22;;;;;;;26.90;19.80;;;13.30;99.90;;;;;;5074445;28;20168;-70
2023/05/12 04:40:47;;;;;;;27.87;20.93;;;13.20;99.90;;;;;;5074966;28;20169;-69
2023/05/12 04:43:13;;;;;;;24.50;19.10;;;13.20;99.90;;;;;;5074704;28;20171;-69
2023/05/12 04:45:38;;;;;;;23.13;19.23;;;13.10;99.90;;;;;;5074094;28;20233;-69
2023/05/12 04:48:04;;;;;;;24.43;19.60;;;13.00;99.90;;;;;;5074056;28;20176;-69
2023/05/12 04:50:30;;;;;;;24.67;18.73;;;13.10;99.90;;;;;;5074040;28;20639;-69
2023/05/12 04:52:55;;;;;;;20.97;18.23;;;13.00;99.90;;;;;;5074241;28;20169;-70
2023/05/12 04:55:21;;;;;;;23.30;18.40;;;13.00;99.90;;;;;;5073917;28;20234;-70
2023/05/12 04:57:47;;;;;;;24.20;18.60;;;13.10;99.90;;;;;;5074066;28;20542;-70
2023/05/12 05:00:13;;;;;;;22.70;18.83;;;13.10;99.90;;;;;;5074044;28;20191;-71
2023/05/12 05:02:40;;;;;;;26.27;18.60;;;13.10;99.90;;;;;;5073672;28;20189;-70
2023/05/12 05:05:06;;;;;;;22.67;18.50;;;13.10;99.90;;;;;;5073971;28;20237;-70
2023/05/12 05:07:32;;;;;;;23.87;17.03;;;13.10;99.90;;;;;;5074022;28;20169;-69
2023/05/12 05:09:57;;;;;;;21.80;17.60;;;13.10;99.90;;;;;;5074083;28;20176;-70
2023/05/12 05:12:24;;;;;;;18.33;15.80;;;13.20;99.90;;;;;;5073329;28;20204;-70
2023/05/12 05:14:50;;;;;;;16.60;14.77;;;13.20;99.90;;;;;;5073484;28;20184;-68
2023/05/12 05:17:15;;;;;;;16.60;14.13;;;13.20;99.90;;;;;;5073196;28;20204;-69
2023/05/12 05:19:41;;;;;;;16.33;14.33;;;13.10;99.90;;;;;;5072771;28;20173;-70
2023/05/12 05:22:07;;;;;;;16.27;13.67;;;13.00;99.90;;;;;;5073510;28;20191;-69
2023/05/12 05:24:33;;;;;;;16.80;14.30;;;12.90;99.90;;;;;;5072870;28;20185;-71
2023/05/12 05:26:58;;;;;;;15.53;13.40;;;12.80;99.90;;;;;;5073017;28;20169;-71
2023/05/12 05:29:25;;;;;;;14.90;13.37;;;12.80;99.90;;;;;;5073028;28;20530;-70
2023/05/12 05:31:51;;;;;;;16.00;12.87;;;12.80;99.90;;;;;;5072597;28;20181;-70
2023/05/12 05:34:17;;;;;;;14.93;12.73;;;12.70;99.90;;;;;;5072925;28;20215;-70
2023/05/12 05:36:43;;;;;;;13.27;11.93;;;12.60;99.90;;;;;;5072137;28;20244;-69
2023/05/12 05:39:09;;;;;;;14.33;12.70;;;12.60;99.90;;;;;;5072928;28;20595;-71
2023/05/12 05:41:35;;;;;;;15.60;13.27;;;12.50;99.90;;;;;;5072915;28;20207;-70
2023/05/12 05:44:00;;;;;;;16.67;13.97;;;12.60;99.90;;;;;;5072737;28;20539;-70
2023/05/12 05:46:26;;;;;;;19.60;13.83;;;12.60;99.90;;;;;;5073065;28;20185;-71
2023/05/12 05:48:51;;;;;;;15.30;13.70;;;12.60;99.90;;;;;;5072284;28;20173;-71
2023/05/12 05:51:17;;;;;;;16.33;13.93;;;12.60;99.90;;;;;;5072338;28;20683;-69
2023/05/12 05:53:43;;;;;;;18.73;14.30;;;12.60;99.90;;;;;;5072549;28;20164;-70
2023/05/12 05:56:08;;;;;;;18.60;13.63;;;12.60;99.90;;;;;;5072248;28;20708;-72
2023/05/12 05:58:34;;;;;;;17.00;13.83;;;12.60;99.90;;;;;;5072178;28;20172;-70
2023/05/12 06:01:00;;;;;;;16.07;13.43;;;12.70;99.90;;;;;;5054601;28;20537;-71
2023/05/12 06:03:26;;;;;;;17.33;13.77;;;12.70;99.90;;;;;;5071778;28;20684;-70
2023/05/12 06:05:51;;;;;;;14.73;12.77;;;12.70;99.90;;;;;;5072331;28;20168;-70
2023/05/12 06:08:17;;;;;;;16.43;13.07;;;12.70;99.90;;;;;;5072586;28;20256;-71
2023/05/12 06:10:43;;;;;;;16.30;12.43;;;12.80;99.90;;;;;;5071822;28;20647;-70
2023/05/12 06:13:08;;;;;;;13.47;12.07;;;12.80;99.90;;;;;;5071885;28;20199;-71
2023/05/12 06:15:34;;;;;;;14.33;12.07;;;12.80;99.90;;;;;;5072103;28;20180;-69
2023/05/12 06:18:00;;;;;;;13.33;11.50;;;12.80;99.90;;;;;;5071785;28;20587;-71
2023/05/12 06:20:25;;;;;;;13.50;11.30;;;12.70;99.90;;;;;;5071165;28;20216;-71
2023/05/12 06:22:51;;;;;;;13.33;11.80;;;12.80;99.90;;;;;;5072124;28;20615;-70
2023/05/12 06:25:17;;;;;;;12.53;11.23;;;12.80;99.90;;;;;;5071618;28;20229;-71
2023/05/12 06:27:42;;;;;;;13.47;12.07;;;12.80;99.90;;;;;;5071908;28;20172;-70
2023/05/12 06:30:08;;;;;;;13.90;11.20;;;12.80;99.90;;;;;;5072165;28;20627;-71
2023/05/12 06:32:34;;;;;;;12.40;10.90;;;12.80;99.90;;;;;;5071532;28;20179;-71
2023/05/12 06:35:00;;;;;;;11.37;9.90;;;12.80;99.90;;;;;;5071651;28;20169;-70
2023/05/12 06:37:26;;;;;;;12.90;10.13;;;12.80;99.90;;;;;;5071714;28;20636;-71
2023/05/12 06:39:51;;;;;;;11.20;10.00;;;12.80;99.90;;;;;;5072128;28;20173;-70
2023/05/12 06:42:17;;;;;;;11.23;10.07;;;12.80;99.90;;;;;;5071608;28;20226;-70
2023/05/12 06:44:43;;;;;;;11.33;10.23;;;12.80;99.90;;;;;;5072143;28;20165;-71
2023/05/12 06:47:08;;;;;;;10.60;9.70;;;12.90;99.90;;;;;;5071321;28;20646;-70
2023/05/12 06:49:35;;;;;;;11.73;10.53;;;12.80;99.90;;;;;;5072390;28;20168;-70
2023/05/12 06:52:02;;;;;;;9.77;8.87;;;12.90;99.90;;;;;;5071718;28;20210;-71
2023/05/12 06:54:28;;;;;;;8.97;8.13;;;12.90;99.90;;;;;;5070733;28;20176;-71
2023/05/12 06:56:53;;;;;;;7.60;7.00;;;12.90;99.90;;;;;;5071382;28;20686;-71
2023/05/12 06:59:19;;;;;;;8.17;7.43;;;12.80;99.90;;;;;;5071404;28;20612;-71
2023/05/12 07:01:44;;;;;;;7.63;7.03;;;12.90;99.90;;;;;;5071589;28;20184;-71
2023/05/12 07:04:10;;;;;;;7.27;6.60;;;12.90;99.90;;;;;;5071491;28;20279;-70
2023/05/12 07:06:36;;;;;;;7.23;6.60;;;13.00;99.90;;;;;;5071219;28;20177;-71
2023/05/12 07:09:01;;;;;;;8.53;6.43;;;12.90;99.90;;;;;;5072246;28;20168;-71
2023/05/12 07:11:27;;;;;;;7.70;7.00;;;13.00;99.90;;;;;;5071457;28;20343;-71
2023/05/12 07:13:53;;;;;;;8.60;7.90;;;13.10;99.90;;;;;;5071554;28;20193;-70
2023/05/12 07:16:18;;;;;;;8.87;8.07;;;13.10;99.90;;;;;;5071715;28;20280;-71
2023/05/12 07:18:44;;;;;;;8.97;8.00;;;13.20;99.90;;;;;;5071400;28;20638;-70
2023/05/12 07:21:11;;;;;;;9.23;8.33;;;13.30;99.90;;;;;;5071241;28;20587;-70
2023/05/12 07:23:37;;;;;;;7.77;7.23;;;13.40;99.90;;;;;;5071268;28;20237;-70
2023/05/12 07:26:05;;;;;;;9.30;8.40;;;13.40;99.90;;;;;;5071223;28;20183;-71
2023/05/12 07:28:35;;;;;;;8.70;7.90;;;13.40;99.90;;;;;;5071969;28;20678;-71
2023/05/12 07:31:06;;;;;;;8.80;7.93;;;13.60;99.90;;;;;;5071450;28;20177;-70
2023/05/12 07:33:32;;;;;;;7.83;7.13;;;13.60;99.90;;;;;;5071384;28;20651;-70
2023/05/12 07:35:57;;;;;;;7.50;6.90;;;13.60;99.90;;;;;;5071255;28;21033;-71
2023/05/12 07:38:23;;;;;;;7.20;6.57;;;13.50;99.90;;;;;;5073619;28;20182;-71
2023/05/12 07:40:50;;;;;;;6.67;6.13;;;13.50;99.90;;;;;;5075075;28;20176;-71
2023/05/12 07:43:16;;;;;;;7.17;6.50;;;13.60;99.90;;;;;;5075457;28;20180;-71
2023/05/12 07:45:42;;;;;;;9.43;6.37;;;13.70;99.90;;;;;;5074680;28;20173;-70
2023/05/12 07:48:08;;;;;;;6.53;6.03;;;13.80;99.90;;;;;;5075090;28;20180;-71
2023/05/12 07:50:34;;;;;;;6.53;6.00;;;13.80;99.90;;;;;;5074650;28;20642;-69
2023/05/12 07:52:59;;;;;;;7.00;6.50;;;13.70;99.90;;;;;;5074843;28;20252;-71
2023/05/12 07:55:25;;;;;;;6.33;5.83;;;13.80;99.90;;;;;;5075039;28;20208;-71
2023/05/12 07:57:51;;;;;;;7.33;6.37;;;13.90;99.90;;;;;;5074733;28;20697;-70
2023/05/12 08:00:17;;;;;;;7.03;6.53;;;14.00;99.90;;;;;;5074671;28;20171;-72
2023/05/12 08:02:43;;;;;;;6.93;6.33;;;14.00;99.90;;;;;;5075049;28;20176;-70
2023/05/12 08:05:10;;;;;;;7.80;6.60;;;14.00;99.90;;;;;;5074367;28;20168;-72
2023/05/12 08:07:37;;;;;;;8.43;7.73;;;14.00;99.90;;;;;;5074198;28;20556;-70
2023/05/12 08:10:06;;;;;;;9.67;8.80;;;13.90;99.90;;;;;;5074421;28;20173;-71
2023/05/12 08:12:32;;;;;;;8.83;8.00;;;14.00;99.90;;;;;;5074283;28;20223;-71
2023/05/12 08:14:58;;;;;;;8.13;7.30;;;14.20;99.90;;;;;;5074251;28;20168;-70
2023/05/12 08:17:24;;;;;;;7.90;7.27;;;14.30;99.90;;;;;;5074917;28;20211;-71
2023/05/12 08:19:49;;;;;;;8.10;7.40;;;14.20;99.90;;;;;;5074283;28;20212;-71
2023/05/12 08:22:15;;;;;;;8.50;7.70;;;14.30;99.90;;;;;;5074376;28;20374;-70
2023/05/12 08:24:41;;;;;;;8.70;7.83;;;14.30;99.90;;;;;;5074460;28;20168;-70
2023/05/12 08:27:07;;;;;;;8.03;7.43;;;14.30;99.90;;;;;;5074306;28;20188;-70
2023/05/12 08:29:32;;;;;;;8.00;7.40;;;14.40;99.90;;;;;;5074174;28;20161;-71
2023/05/12 08:31:58;;;;;;;7.83;7.17;;;14.50;99.90;;;;;;5074151;28;20251;-70
2023/05/12 08:34:24;;;;;;;8.33;7.73;;;14.50;99.90;;;;;;5073653;28;20604;-71
2023/05/12 08:36:53;;;;;;;8.27;7.67;;;14.50;99.90;;;;;;5074006;28;20253;-71
2023/05/12 08:39:20;;;;;;;9.23;7.17;;;14.60;99.90;;;;;;5074436;28;20168;-72
2023/05/12 08:42:08;;;;;;;8.00;7.30;;;14.80;99.90;;;;;;5073649;28;20173;-71
2023/05/12 08:44:35;;;;;;;8.20;7.60;;;14.80;99.90;;;;;;5074293;28;20642;-72
2023/05/12 08:47:04;;;;;;;7.50;7.00;;;14.90;99.90;;;;;;5073370;28;20183;-72
2023/05/12 08:49:31;;;;;;;8.07;7.50;;;15.10;99.90;;;;;;5055824;28;20169;-72
2023/05/12 08:52:00;;;;;;;6.70;6.20;;;15.40;99.90;;;;;;5073998;28;20165;-71
2023/05/12 08:54:27;;;;;;;6.50;6.00;;;15.20;99.90;;;;;;5073881;28;20255;-72
2023/05/12 08:56:53;;;;;;;7.10;6.40;;;15.00;99.90;;;;;;5073073;28;20200;-71
2023/05/12 08:59:19;;;;;;;7.57;6.90;;;14.90;99.90;;;;;;5073678;28;20726;-71
2023/05/12 09:01:46;;;;;;;7.73;6.93;;;15.20;99.90;;;;;;5073532;28;20259;-72
2023/05/12 09:04:14;;;;;;;8.80;7.90;;;15.20;99.90;;;;;;5073816;28;20251;-72
2023/05/12 09:06:41;;;;;;;9.00;7.93;;;15.30;99.90;;;;;;5073636;28;20184;-71
2023/05/12 09:09:06;;;;;;;8.10;7.50;;;15.10;99.90;;;;;;5072836;28;20168;-72
2023/05/12 09:11:32;;;;;;;6.83;6.27;;;15.00;99.90;;;;;;5073612;28;20179;-71
2023/05/12 09:14:06;;;;;;;7.07;6.47;;;14.80;99.90;;;;;;5073863;28;20679;-72
2023/05/12 09:16:41;;;;;;;6.70;6.20;;;14.80;99.90;;;;;;5073469;28;20286;-72
2023/05/12 09:19:07;;;;;;;6.00;5.60;;;14.70;99.90;;;;;;5073176;28;20168;-72
2023/05/12 09:21:33;;;;;;;5.47;4.97;;;14.60;99.90;;;;;;5073150;28;20280;-72
2023/05/12 09:24:07;;;;;;;4.80;4.40;;;14.70;99.90;;;;;;5073454;28;20171;-71
2023/05/12 09:26:54;;;;;;;5.10;4.70;;;14.40;99.90;;;;;;5072874;28;20213;-73
2023/05/12 09:29:20;;;;;;;4.80;4.47;;;14.40;99.90;;;;;;5073649;28;20187;-72
2023/05/12 09:31:53;;;;;;;4.87;4.53;;;14.30;99.90;;;;;;5073352;28;20507;-72
2023/05/12 09:34:34;;;;;;;5.87;5.37;;;14.30;99.90;;;;;;5073055;28;20175;-72
2023/05/12 09:37:03;;;;;;;6.80;6.10;;;14.30;99.90;;;;;;5073002;28;20552;-71
2023/05/12 09:39:30;;;;;;;4.83;4.43;;;14.40;99.90;;;;;;5073413;28;20255;-72
2023/05/12 09:41:55;;;;;;;5.83;5.27;;;14.50;99.90;;;;;;5072888;28;20179;-70
2023/05/12 09:44:22;;;;;;;5.10;4.70;;;14.40;99.90;;;;;;5073132;28;20169;-70
2023/05/12 09:46:48;;;;;;;5.53;5.03;;;14.30;99.90;;;;;;5072639;28;20196;-71
2023/05/12 09:49:27;;;;;;;4.57;4.00;;;14.50;99.90;;;;;;5054461;28;20165;-70
2023/05/12 09:51:57;;;;;;;4.17;3.87;;;14.40;99.90;;;;;;5072723;28;20184;-72
2023/05/12 09:54:25;;;;;;;4.93;4.47;;;14.30;99.90;;;;;;5072589;28;20173;-71
2023/05/12 09:56:54;;;;;;;5.73;5.13;;;14.40;99.90;;;;;;5072497;28;20291;-72
2023/05/12 09:59:25;;;;;;;3.90;3.60;;;14.40;99.90;;;;;;5072876;28;20183;-72
2023/05/12 10:01:52;;;;;;;4.90;4.60;;;14.40;99.90;;;;;;5072058;28;20182;-71
2023/05/12 10:04:19;;;;;;;4.27;3.97;;;14.40;99.90;;;;;;5072661;28;20282;-73
2023/05/12 10:06:46;;;;;;;4.57;4.17;;;14.50;99.90;;;;;;5072264;28;20191;-74
2023/05/12 10:09:34;;;;;;;4.00;3.60;;;14.50;99.90;;;;;;5072503;28;20169;-71
2023/05/12 10:12:03;;;;;;;4.50;4.20;;;14.50;99.90;;;;;;5072130;28;20183;-71
2023/05/12 10:14:30;;;;;;;5.20;4.70;;;14.60;99.90;;;;;;5072290;28;20175;-70
2023/05/12 10:16:58;;;;;;;4.50;4.20;;;14.50;99.90;;;;;;5072154;28;20212;-72
2023/05/12 10:19:25;;;;;;;6.90;6.20;;;14.50;99.90;;;;;;5071812;28;20177;-71
2023/05/12 10:21:51;;;;;;;6.53;5.87;;;14.60;99.90;;;;;;5032325;28;20276;-72
2023/05/12 10:24:16;;;;;;;5.60;5.10;;;14.90;99.90;;;;;;5032233;28;20586;-71
2023/05/12 10:26:43;;;;;;;5.50;5.00;;;15.10;99.90;;;;;;5031889;28;20178;-71
2023/05/12 10:29:09;;;;;;;5.40;4.97;;;15.30;99.90;;;;;;5032296;28;20165;-74
2023/05/12 10:31:37;;;;;;;4.77;4.37;;;15.40;99.90;;;;;;5031717;28;20166;-73
2023/05/12 10:34:03;;;;;;;4.30;4.00;;;15.70;99.90;;;;;;5032373;28;20178;-72
2023/05/12 10:36:29;;;;;;;7.97;7.17;;;15.70;99.90;;;;;;5032316;28;20722;-71
2023/05/12 10:39:05;;;;;;;4.90;3.80;;;15.80;99.90;;;;;;5031757;28;20252;-73
2023/05/12 10:41:32;;;;;;;5.87;5.20;;;15.80;99.90;;;;;;5032426;28;20185;-72
2023/05/12 10:43:58;;;;;;;7.00;5.23;;;15.70;99.90;;;;;;5032097;28;20193;-72
2023/05/12 10:46:26;;;;;;;4.20;4.00;;;15.80;99.90;;;;;;5032116;28;20617;-73
2023/05/12 10:49:07;;;;;;;7.97;7.10;;;16.00;99.90;;;;;;5032193;28;20174;-71
2023/05/12 10:51:36;;;;;;;5.63;5.10;;;15.90;99.90;;;;;;5031970;28;20170;-73
2023/05/12 10:54:06;;;;;;;4.33;4.03;;;16.10;99.90;;;;;;5031408;28;20181;-71
2023/05/12 10:56:38;;;;;;;4.67;4.37;;;16.10;99.90;;;;;;5031767;28;20209;-72
2023/05/12 10:59:17;;;;;;;3.93;3.63;;;16.70;99.90;;;;;;5032023;28;20206;-72
2023/05/12 11:02:29;;;;;;;4.30;3.88;;;17.20;94.00;;;;;;5031827;28;20659;-72
2023/05/12 11:04:57;;;;;;;3.97;3.70;;;17.60;68.10;;;;;;5027385;28;20267;-72
2023/05/12 11:07:30;;;;;;;4.15;3.85;;;18.20;58.10;;;;;;5031631;28;20185;-73
2023/05/12 11:09:58;;;;;;;3.80;3.50;;;19.00;26.00;;;;;;5030697;28;20178;-72
2023/05/12 11:12:30;;;;;;;4.25;3.95;;;19.20;22.90;;;;;;5034084;28;20216;-71
2023/05/12 11:14:59;;;;;;;4.30;3.90;;;18.90;19.60;;;;;;5035577;28;20328;-72
2023/05/12 11:17:25;;;;;;;4.10;3.80;;;18.60;34.30;;;;;;5035536;28;20212;-72
2023/05/12 11:19:51;;;;;;;3.90;3.70;;;18.10;39.70;;;;;;5042445;28;20220;-72
2023/05/12 11:22:19;;;;;;;4.30;4.00;;;17.30;58.50;;;;;;5074813;28;20215;-71
2023/05/12 11:24:45;;;;;;;5.07;4.57;;;17.20;91.30;;;;;;5075523;28;20172;-72
2023/05/12 11:27:13;;;;;;;4.63;4.22;;;17.30;91.50;;;;;;5075129;28;20174;-72
2023/05/12 11:29:40;;;;;;;4.47;4.18;;;17.30;93.40;;;;;;5074965;28;20176;-72
2023/05/12 11:32:07;;;;;;;5.30;4.90;;;17.30;91.50;;;;;;5075096;28;20180;-71
2023/05/12 11:34:33;;;;;;;5.47;5.05;;;17.20;87.40;;;;;;5074947;28;20169;-72
2023/05/12 11:36:58;;;;;;;5.13;4.70;;;17.30;86.70;;;;;;5074568;28;20730;-72
2023/05/12 11:39:26;;;;;;;5.78;5.38;;;17.50;67.90;;;;;;5075173;28;20164;-71
2023/05/12 11:41:53;;;;;;;6.30;5.80;;;17.70;64.00;;;;;;5075338;28;20176;-71
2023/05/12 11:44:23;;;;;;;6.43;5.93;;;18.50;54.70;;;;;;5075024;28;20164;-72
2023/05/12 11:47:10;;;;;;;6.07;5.40;;;18.80;29.20;;;;;;5074951;28;20275;-73
2023/05/12 11:49:46;;;;;;;6.25;5.85;;;18.30;33.90;;;;;;5075210;28;20168;-72
2023/05/12 11:52:12;;;;;;;7.80;7.10;;;18.00;48.80;;;;;;5056610;28;20178;-71
2023/05/12 11:54:38;;;;;;;5.55;5.05;;;17.80;72.80;;;;;;5074859;28;20164;-71
2023/05/12 11:57:04;;;;;;;4.65;4.35;;;17.50;87.00;;;;;;5074618;28;20213;-71
2023/05/12 11:59:31;;;;;;;5.75;5.28;;;17.00;80.10;;;;;;5074543;28;20577;-72
2023/05/12 12:01:59;;;;;;;5.10;4.43;;;16.90;99.90;;;;;;5074839;28;20176;-71
2023/05/12 12:04:35;;;;;;;3.67;3.50;;;16.70;97.70;;;;;;5075209;28;20199;-71
2023/05/12 12:07:01;;;;;;;3.97;3.78;;;16.60;97.00;;;;;;5074179;28;20167;-71
2023/05/12 12:09:39;;;;;;;6.43;4.80;;;16.50;99.90;;;;;;5073816;28;20176;-74
2023/05/12 12:12:06;;;;;;;5.27;4.83;;;16.50;99.90;;;;;;5074886;28;20171;-71
2023/05/12 12:14:34;;;;;;;4.33;4.13;;;16.60;99.90;;;;;;5074524;28;20169;-73
2023/05/12 12:17:00;;;;;;;4.10;3.80;;;16.60;99.90;;;;;;5073728;28;20305;-72
2023/05/12 12:19:26;;;;;;;4.07;3.87;;;16.40;98.90;;;;;;5074516;28;20164;-71
2023/05/12 12:21:53;;;;;;;4.93;4.43;;;16.30;99.90;;;;;;5073912;28;20172;-71
2023/05/12 12:24:18;;;;;;;5.47;5.07;;;16.40;99.90;;;;;;5073684;28;20161;-71
2023/05/12 12:26:44;;;;;;;5.73;5.43;;;16.70;99.90;;;;;;5073922;28;20489;-72
2023/05/12 12:29:10;;;;;;;7.60;6.67;;;17.00;98.80;;;;;;5074458;28;20573;-72
2023/05/12 12:31:36;;;;;;;6.77;5.93;;;17.20;95.70;;;;;;5074046;28;20180;-72
2023/05/12 12:34:03;;;;;;;5.60;5.20;;;17.40;77.00;;;;;;5073976;28;20256;-72